Lydia, Louisiana
Current Conditions -  °F | °C
As of 5:53 PM on Thursday 27 Nov 2014 (Local Time) from KARA Reporting Station
Clear Clear  
Wind Chill: 52°   Ceiling: Unl
Heat Index: 52°   Visibility: 10mi
Dew Point: 35°   Wind: 6mph
Humidity: 53%   Direction: 340°NNW
Pressure: 30.44"   Gusts: NA
Location:  29.92°N, 91.78°W
Report Text: KARA 272353Z 34005KT 10SM CLR 11/02 A3044 RMK AO2 SLP307 T01110017 10178 20106 53013
Loading
Personal Weather Stations






























Interactive Weather Map New forecast layout! Learn more

10-Day Weather Forecast

Advertisements
Track Severe Weather on mobile